Time;durP1;ratioP1;P1;durP2;ratioP2;P2;SDS_P1;SDS_P2;PMS_P1;PMS_P2;Temp;Humidity;BMP_temperature;BMP_pressure;BME280_temperature;BME280_humidity;BME280_pressure;Samples;Min_cycle;Max_cycle;Signal;HPM_P1;HPM_P2
2021/11/11 00:00:26;;;;;;;0.30;0.30;;;3.00;99.90;;;;;;4997206;28;20448;-85
2021/11/11 00:02:53;;;;;;;0.40;0.40;;;3.00;99.90;;;;;;4997021;28;20491;-86
2021/11/11 00:05:21;;;;;;;0.60;0.60;;;3.00;99.90;;;;;;4996912;28;20484;-86
2021/11/11 00:07:47;;;;;;;0.30;0.30;;;3.00;99.90;;;;;;4996834;28;20480;-86
2021/11/11 00:10:16;;;;;;;0.40;0.40;;;3.00;99.90;;;;;;4997008;28;20472;-86
2021/11/11 00:12:43;;;;;;;0.30;0.30;;;3.00;99.90;;;;;;4997129;28;20456;-86
2021/11/11 00:15:13;;;;;;;0.87;0.87;;;3.00;99.90;;;;;;4996765;28;20495;-86
2021/11/11 00:17:40;;;;;;;0.30;0.30;;;3.00;99.90;;;;;;4996731;28;20459;-86
2021/11/11 00:20:10;;;;;;;1.13;1.13;;;3.00;99.90;;;;;;4996720;28;20556;-86
2021/11/11 00:22:37;;;;;;;0.40;0.40;;;2.90;99.90;;;;;;4996849;28;20464;-86
2021/11/11 00:25:05;;;;;;;0.60;0.60;;;2.90;99.90;;;;;;4996894;28;20847;-86
2021/11/11 00:27:33;;;;;;;0.57;0.57;;;2.90;99.90;;;;;;4996772;28;20452;-86
2021/11/11 00:30:00;;;;;;;0.40;0.30;;;2.90;99.90;;;;;;4996630;28;20445;-86
2021/11/11 00:32:28;;;;;;;0.40;0.40;;;2.90;99.90;;;;;;4996436;28;20456;-85
2021/11/11 00:34:55;;;;;;;0.30;0.30;;;2.90;99.90;;;;;;4996151;28;20976;-86
2021/11/11 00:37:23;;;;;;;0.70;0.50;;;2.90;99.90;;;;;;4996231;28;20956;-85
2021/11/11 00:39:52;;;;;;;1.23;1.13;;;2.90;99.90;;;;;;4996377;28;20464;-85
2021/11/11 00:42:20;;;;;;;0.70;0.70;;;2.90;99.90;;;;;;4996190;28;20444;-86
2021/11/11 00:44:48;;;;;;;0.40;0.40;;;2.90;99.90;;;;;;4996188;28;21070;-86
2021/11/11 00:47:14;;;;;;;0.40;0.37;;;2.80;99.90;;;;;;4996267;28;20846;-86
2021/11/11 00:49:43;;;;;;;0.40;0.40;;;2.80;99.90;;;;;;4996492;28;20448;-85
2021/11/11 00:52:11;;;;;;;0.33;0.33;;;2.90;99.90;;;;;;4995932;28;20542;-85
2021/11/11 00:54:40;;;;;;;0.43;0.43;;;2.90;99.90;;;;;;4996136;28;20560;-86
2021/11/11 00:57:07;;;;;;;0.37;0.37;;;2.90;99.90;;;;;;4996206;28;20460;-86
2021/11/11 00:59:34;;;;;;;0.40;0.40;;;2.90;99.90;;;;;;4996098;28;20456;-85
2021/11/11 01:02:03;;;;;;;0.30;0.27;;;2.90;99.90;;;;;;4995534;28;20825;-85
2021/11/11 01:04:29;;;;;;;0.30;0.30;;;2.90;99.90;;;;;;4995984;28;20473;-86
2021/11/11 01:06:57;;;;;;;0.30;0.30;;;2.90;99.90;;;;;;4995785;28;20445;-86
2021/11/11 01:09:24;;;;;;;0.80;0.40;;;2.90;99.90;;;;;;4995963;28;20452;-85
2021/11/11 01:11:51;;;;;;;0.40;0.40;;;2.90;99.90;;;;;;4995826;28;20457;-85
2021/11/11 01:14:18;;;;;;;0.30;0.30;;;2.80;99.90;;;;;;4995785;28;20463;-86
2021/11/11 01:16:45;;;;;;;0.60;0.50;;;2.80;99.90;;;;;;4995453;28;21034;-86
2021/11/11 01:19:13;;;;;;;0.30;0.30;;;2.80;99.90;;;;;;4995442;28;20445;-85
2021/11/11 01:21:39;;;;;;;0.50;0.50;;;2.70;99.90;;;;;;4995700;28;20445;-86
2021/11/11 01:24:08;;;;;;;0.50;0.50;;;2.70;99.90;;;;;;4995770;28;20839;-86
2021/11/11 01:26:35;;;;;;;0.30;0.27;;;2.70;99.90;;;;;;4995722;28;20444;-86
2021/11/11 01:29:02;;;;;;;0.53;0.53;;;2.70;99.90;;;;;;4995658;28;20459;-86
2021/11/11 01:31:29;;;;;;;0.60;0.40;;;2.70;99.90;;;;;;4995617;28;20956;-86
2021/11/11 01:33:56;;;;;;;0.50;0.50;;;2.70;99.90;;;;;;4995153;28;20468;-85
2021/11/11 01:36:22;;;;;;;0.40;0.40;;;2.70;99.90;;;;;;4995410;28;20495;-86
2021/11/11 01:38:49;;;;;;;0.50;0.50;;;2.70;99.90;;;;;;4995366;28;20448;-86
2021/11/11 01:41:18;;;;;;;1.03;0.50;;;2.70;99.90;;;;;;4995268;28;20453;-86
2021/11/11 01:43:44;;;;;;;0.63;0.63;;;2.70;99.90;;;;;;4995260;28;20484;-85
2021/11/11 01:46:11;;;;;;;0.50;0.50;;;2.70;99.90;;;;;;4995244;28;20456;-86
2021/11/11 01:48:38;;;;;;;0.40;0.40;;;2.60;99.90;;;;;;4994984;28;20998;-85
2021/11/11 01:51:05;;;;;;;0.40;0.30;;;2.60;99.90;;;;;;4994931;28;20487;-85
2021/11/11 01:53:32;;;;;;;0.30;0.30;;;2.60;99.90;;;;;;4994949;28;20512;-86
2021/11/11 01:55:59;;;;;;;0.30;0.30;;;2.60;99.90;;;;;;4994846;28;20484;-86
2021/11/11 01:58:27;;;;;;;0.40;0.37;;;2.60;99.90;;;;;;4994815;28;20975;-85
2021/11/11 02:00:57;;;;;;;0.30;0.30;;;2.70;99.90;;;;;;4994959;28;20963;-85
2021/11/11 02:03:24;;;;;;;0.83;0.40;;;2.70;99.90;;;;;;4995899;28;20832;-85
2021/11/11 02:05:52;;;;;;;1.07;0.50;;;2.70;99.90;;;;;;4994920;28;20445;-85
2021/11/11 02:08:19;;;;;;;0.30;0.30;;;2.70;99.90;;;;;;4994900;28;20859;-86
2021/11/11 02:10:46;;;;;;;0.67;0.50;;;2.70;99.90;;;;;;4994923;28;20455;-86
2021/11/11 02:13:13;;;;;;;0.30;0.30;;;2.70;99.90;;;;;;4993542;28;20464;-85
2021/11/11 02:15:42;;;;;;;0.50;0.50;;;2.60;99.90;;;;;;4994357;28;20555;-85
2021/11/11 02:18:09;;;;;;;0.30;0.30;;;2.60;99.90;;;;;;4994699;28;20976;-85
2021/11/11 02:20:39;;;;;;;1.60;0.63;;;2.50;99.90;;;;;;4994448;28;20444;-85
2021/11/11 02:23:10;;;;;;;0.40;0.40;;;2.50;99.90;;;;;;4994359;28;20453;-86
2021/11/11 02:25:37;;;;;;;0.50;0.50;;;2.50;99.90;;;;;;4994600;28;20527;-86
2021/11/11 02:28:07;;;;;;;0.80;0.80;;;2.50;99.90;;;;;;4994393;28;20484;-85
2021/11/11 02:30:35;;;;;;;0.30;0.30;;;2.50;99.90;;;;;;4994541;28;20449;-85
2021/11/11 02:33:08;;;;;;;0.50;0.50;;;2.50;99.90;;;;;;4994503;28;20480;-85
2021/11/11 02:35:35;;;;;;;0.77;0.63;;;2.50;99.90;;;;;;4994454;28;20948;-85
2021/11/11 02:38:03;;;;;;;0.50;0.50;;;2.40;99.90;;;;;;4994119;28;20437;-85
2021/11/11 02:40:30;;;;;;;0.53;0.53;;;2.40;99.90;;;;;;4994571;28;20455;-85
2021/11/11 02:42:57;;;;;;;0.30;0.27;;;2.40;99.90;;;;;;4993987;28;20999;-85
2021/11/11 02:45:26;;;;;;;0.60;0.60;;;2.40;99.90;;;;;;4994450;28;20444;-86
2021/11/11 02:47:53;;;;;;;1.03;1.03;;;2.40;99.90;;;;;;4994773;28;20460;-85
2021/11/11 02:50:21;;;;;;;0.83;0.83;;;2.40;99.90;;;;;;4994340;28;20967;-85
2021/11/11 02:52:50;;;;;;;0.30;0.30;;;2.50;99.90;;;;;;4994156;28;20871;-85
2021/11/11 02:55:19;;;;;;;0.53;0.53;;;2.50;99.90;;;;;;4994170;28;20832;-86
2021/11/11 02:57:47;;;;;;;0.53;0.53;;;2.40;99.90;;;;;;4994056;28;20437;-85
2021/11/11 03:00:17;;;;;;;1.27;1.27;;;2.40;99.90;;;;;;4994048;28;20452;-85
2021/11/11 03:02:46;;;;;;;0.30;0.30;;;2.50;99.90;;;;;;4993765;28;20444;-85
2021/11/11 03:05:15;;;;;;;0.40;0.40;;;2.50;99.90;;;;;;4994001;28;20485;-85
2021/11/11 03:07:42;;;;;;;0.60;0.40;;;2.50;99.90;;;;;;4993789;28;20452;-85
2021/11/11 03:10:12;;;;;;;2.90;0.80;;;2.50;99.90;;;;;;4994734;28;20483;-85
2021/11/11 03:12:40;;;;;;;1.20;1.20;;;2.50;99.90;;;;;;4994143;28;20460;-85
2021/11/11 03:15:09;;;;;;;0.30;0.30;;;2.50;99.90;;;;;;4994029;28;20444;-85
2021/11/11 03:17:36;;;;;;;0.50;0.50;;;2.50;99.90;;;;;;4993768;28;20484;-85
2021/11/11 03:20:04;;;;;;;0.40;0.40;;;2.50;99.90;;;;;;4994055;28;20805;-86
2021/11/11 03:22:31;;;;;;;0.70;0.70;;;2.50;99.90;;;;;;4993927;28;20804;-85
2021/11/11 03:24:59;;;;;;;0.33;0.33;;;2.50;99.90;;;;;;4997263;28;20983;-85
2021/11/11 03:27:27;;;;;;;0.50;0.40;;;2.40;99.90;;;;;;4998061;28;20444;-85
2021/11/11 03:29:56;;;;;;;0.73;0.73;;;2.40;99.90;;;;;;4997916;28;20456;-85
2021/11/11 03:32:23;;;;;;;0.30;0.30;;;2.40;99.90;;;;;;4997911;28;20432;-86
2021/11/11 03:34:50;;;;;;;0.30;0.30;;;2.40;99.90;;;;;;4997594;28;20472;-86
2021/11/11 03:37:17;;;;;;;0.60;0.60;;;2.40;99.90;;;;;;4997407;28;20480;-85
2021/11/11 03:39:44;;;;;;;0.40;0.40;;;2.40;99.90;;;;;;4997551;28;20830;-85
2021/11/11 03:42:13;;;;;;;0.30;0.30;;;2.40;99.90;;;;;;4997543;28;20432;-85
2021/11/11 03:44:40;;;;;;;0.40;0.40;;;2.40;99.90;;;;;;4997597;28;21095;-85
2021/11/11 03:47:08;;;;;;;0.30;0.30;;;2.50;99.90;;;;;;4997588;28;20445;-85
2021/11/11 03:49:36;;;;;;;0.30;0.30;;;2.50;99.90;;;;;;4997245;28;20452;-85
2021/11/11 03:52:03;;;;;;;0.30;0.30;;;2.50;99.90;;;;;;4997055;28;20515;-85
2021/11/11 03:54:30;;;;;;;0.57;0.57;;;2.50;99.90;;;;;;4997417;28;20834;-85
2021/11/11 03:56:58;;;;;;;0.40;0.40;;;2.50;99.90;;;;;;4997289;28;20562;-86
2021/11/11 03:59:26;;;;;;;0.47;0.47;;;2.50;99.90;;;;;;4997250;28;20495;-86
2021/11/11 04:01:54;;;;;;;0.30;0.30;;;2.60;99.90;;;;;;4997203;28;20451;-86
2021/11/11 04:04:22;;;;;;;0.30;0.20;;;2.60;99.90;;;;;;4997137;28;20472;-86
2021/11/11 04:06:49;;;;;;;0.50;0.50;;;2.70;99.90;;;;;;4997103;28;20813;-85
2021/11/11 04:09:16;;;;;;;1.50;1.03;;;2.70;99.90;;;;;;4997037;28;20810;-85
2021/11/11 04:11:43;;;;;;;0.40;0.40;;;2.80;99.90;;;;;;4996719;28;20452;-86
2021/11/11 04:14:10;;;;;;;0.50;0.50;;;2.80;99.90;;;;;;4996692;28;20996;-85
2021/11/11 04:16:36;;;;;;;0.30;0.30;;;2.90;99.90;;;;;;4996872;28;20488;-85
2021/11/11 04:19:04;;;;;;;0.30;0.30;;;2.90;99.90;;;;;;4996783;28;20479;-85
2021/11/11 04:21:32;;;;;;;0.30;0.30;;;2.90;99.90;;;;;;4996564;28;20459;-85
2021/11/11 04:23:59;;;;;;;0.37;0.33;;;2.80;99.90;;;;;;4996374;28;20508;-85
2021/11/11 04:26:27;;;;;;;0.60;0.60;;;2.80;99.90;;;;;;4996690;28;20449;-85
2021/11/11 04:28:58;;;;;;;0.30;0.30;;;2.70;99.90;;;;;;4996769;28;20507;-85
2021/11/11 04:31:27;;;;;;;0.30;0.30;;;2.60;99.90;;;;;;4996715;28;20476;-86
2021/11/11 04:33:57;;;;;;;0.50;0.50;;;2.60;99.90;;;;;;4996866;28;20467;-86
2021/11/11 04:36:45;;;;;;;0.70;0.70;;;2.50;99.90;;;;;;4995361;28;20560;-85
2021/11/11 04:39:31;;;;;;;0.30;0.30;;;2.40;99.90;;;;;;4996278;28;20437;-85
2021/11/11 04:42:11;;;;;;;0.90;0.90;;;2.30;99.90;;;;;;4996523;28;20445;-85
2021/11/11 04:44:47;;;;;;;0.50;0.50;;;2.20;99.90;;;;;;4996189;28;20460;-86
2021/11/11 04:47:27;;;;;;;0.43;0.43;;;2.20;99.90;;;;;;4996425;28;20527;-85
2021/11/11 04:50:32;;;;;;;0.30;0.30;;;2.20;99.90;;;;;;4996366;28;20432;-85
2021/11/11 04:59:26;;;;;;;0.30;0.30;;;2.10;99.90;;;;;;4995873;28;20491;-85
2021/11/11 05:01:25;;;;;;;0.60;0.60;;;2.10;99.90;;;;;;4996242;28;20424;-86
2021/11/11 05:03:52;;;;;;;0.60;0.60;;;2.20;99.90;;;;;;4995686;28;20484;-85
2021/11/11 05:06:19;;;;;;;2.00;2.00;;;2.20;99.90;;;;;;4995944;28;20453;-85
2021/11/11 05:08:46;;;;;;;0.30;0.30;;;2.30;99.90;;;;;;4995905;28;20831;-85
2021/11/11 05:11:14;;;;;;;0.30;0.30;;;2.40;99.90;;;;;;4995962;28;20449;-85
2021/11/11 05:13:41;;;;;;;0.80;0.40;;;2.40;99.90;;;;;;4995792;28;20479;-85
2021/11/11 05:16:08;;;;;;;0.53;0.53;;;2.30;99.90;;;;;;4995766;28;20479;-85
2021/11/11 05:18:35;;;;;;;1.73;1.03;;;2.30;99.90;;;;;;4995624;28;20453;-85
2021/11/11 05:21:02;;;;;;;0.40;0.40;;;2.20;99.90;;;;;;4995838;28;20448;-86
2021/11/11 05:23:29;;;;;;;0.50;0.37;;;2.20;99.90;;;;;;4995679;28;20480;-86
2021/11/11 05:25:56;;;;;;;0.37;0.37;;;2.20;99.90;;;;;;4995410;28;20455;-85
2021/11/11 05:28:24;;;;;;;0.80;0.80;;;2.20;99.90;;;;;;4995605;28;20540;-85
2021/11/11 05:30:51;;;;;;;0.30;0.30;;;2.20;99.90;;;;;;4995301;28;20947;-86
2021/11/11 05:33:18;;;;;;;0.33;0.33;;;2.20;99.90;;;;;;4995472;28;20472;-85
2021/11/11 05:35:45;;;;;;;1.23;1.03;;;2.10;99.90;;;;;;4995230;28;20539;-85
2021/11/11 05:38:12;;;;;;;1.30;1.20;;;2.10;99.90;;;;;;4995462;28;20861;-85
2021/11/11 05:40:39;;;;;;;0.40;0.30;;;2.20;99.90;;;;;;4995257;28;20447;-86
2021/11/11 05:43:06;;;;;;;0.40;0.40;;;2.20;99.90;;;;;;4995362;28;20469;-85
2021/11/11 05:45:34;;;;;;;0.93;0.93;;;2.20;99.90;;;;;;4995187;28;20452;-85
2021/11/11 05:48:00;;;;;;;0.30;0.30;;;2.10;99.90;;;;;;4995044;28;20444;-85
2021/11/11 05:50:28;;;;;;;0.40;0.40;;;2.20;99.90;;;;;;4995181;28;20457;-85
2021/11/11 05:52:55;;;;;;;0.63;0.63;;;2.10;99.90;;;;;;4994637;28;20998;-86
2021/11/11 05:55:23;;;;;;;0.40;0.40;;;2.10;99.90;;;;;;4994961;28;20453;-85
2021/11/11 05:57:50;;;;;;;0.97;0.97;;;2.10;99.90;;;;;;4994658;28;20463;-85
2021/11/11 06:00:19;;;;;;;0.40;0.40;;;2.10;99.90;;;;;;4994860;28;20443;-85
2021/11/11 06:02:48;;;;;;;0.40;0.40;;;2.10;99.90;;;;;;4994996;28;20452;-85
2021/11/11 06:05:15;;;;;;;0.63;0.63;;;2.20;99.90;;;;;;4995000;28;20460;-85
2021/11/11 06:07:42;;;;;;;0.30;0.30;;;2.20;99.90;;;;;;4994638;28;20463;-85
2021/11/11 06:10:10;;;;;;;0.30;0.30;;;2.20;99.90;;;;;;4994907;28;20432;-85
2021/11/11 06:12:37;;;;;;;0.57;0.57;;;2.20;99.90;;;;;;4994540;28;20451;-85
2021/11/11 06:15:05;;;;;;;0.93;0.50;;;2.20;99.90;;;;;;4994813;28;20444;-85
2021/11/11 06:17:31;;;;;;;1.23;0.50;;;2.20;99.90;;;;;;4994651;28;20488;-86
2021/11/11 06:20:00;;;;;;;2.93;1.23;;;2.30;99.90;;;;;;4994471;28;20439;-85
2021/11/11 06:22:29;;;;;;;0.30;0.30;;;2.40;99.90;;;;;;4994535;28;20476;-85
2021/11/11 06:24:56;;;;;;;0.30;0.30;;;2.30;99.90;;;;;;4994269;28;20483;-85
2021/11/11 06:27:22;;;;;;;0.30;0.30;;;2.40;99.90;;;;;;4994289;28;20471;-85
2021/11/11 06:29:49;;;;;;;0.40;0.40;;;2.40;99.90;;;;;;4994480;28;20480;-85
2021/11/11 06:32:16;;;;;;;0.30;0.30;;;2.40;99.90;;;;;;4994936;28;20448;-85
2021/11/11 06:34:43;;;;;;;1.27;0.50;;;2.40;99.90;;;;;;4996938;28;20477;-85
2021/11/11 06:37:11;;;;;;;0.40;0.40;;;2.50;99.90;;;;;;4995595;28;20476;-85
2021/11/11 06:39:38;;;;;;;0.70;0.70;;;2.50;99.90;;;;;;4994543;28;20963;-85
2021/11/11 06:42:05;;;;;;;1.30;0.80;;;2.50;99.90;;;;;;4994369;28;20452;-84
2021/11/11 06:44:32;;;;;;;0.93;0.93;;;2.50;99.90;;;;;;4994337;28;20841;-85
2021/11/11 06:46:59;;;;;;;0.50;0.50;;;2.50;99.90;;;;;;4994468;28;20453;-85
2021/11/11 06:49:25;;;;;;;0.30;0.30;;;2.50;99.90;;;;;;4994303;28;20452;-85
2021/11/11 06:51:52;;;;;;;1.07;0.63;;;2.50;99.90;;;;;;4993872;28;20492;-85
2021/11/11 06:54:20;;;;;;;0.47;0.47;;;2.60;99.90;;;;;;4994150;28;20988;-85
2021/11/11 06:56:47;;;;;;;4.30;1.00;;;2.50;99.90;;;;;;4994125;28;21014;-85
2021/11/11 06:59:14;;;;;;;0.37;0.37;;;2.60;99.90;;;;;;4993713;28;20451;-85
2021/11/11 07:01:41;;;;;;;0.30;0.30;;;2.60;99.90;;;;;;4993974;28;20441;-85
2021/11/11 07:04:07;;;;;;;0.40;0.40;;;2.60;99.90;;;;;;4994139;28;20460;-85
2021/11/11 07:06:35;;;;;;;0.97;0.97;;;2.60;99.90;;;;;;4994205;28;20457;-85
2021/11/11 07:09:02;;;;;;;3.07;2.87;;;2.60;99.90;;;;;;4994176;28;20458;-85
2021/11/11 07:11:30;;;;;;;0.53;0.53;;;2.70;99.90;;;;;;4994227;28;20455;-85
2021/11/11 07:13:57;;;;;;;0.40;0.40;;;2.70;99.90;;;;;;4994100;28;20473;-85
2021/11/11 07:16:24;;;;;;;1.33;1.23;;;2.70;99.90;;;;;;4994090;28;20479;-85
2021/11/11 07:18:51;;;;;;;0.40;0.40;;;2.80;99.90;;;;;;4993982;28;20447;-85
2021/11/11 07:21:17;;;;;;;0.47;0.47;;;2.80;99.90;;;;;;4994134;28;20440;-85
2021/11/11 07:23:44;;;;;;;1.03;1.03;;;2.90;99.90;;;;;;4993761;28;20457;-85
2021/11/11 07:26:12;;;;;;;0.77;0.50;;;3.00;99.90;;;;;;4993966;28;20921;-85
2021/11/11 07:28:40;;;;;;;1.13;0.83;;;3.10;99.90;;;;;;4993586;28;20547;-85
2021/11/11 07:31:07;;;;;;;1.73;0.83;;;3.10;99.90;;;;;;4993762;28;20456;-85
2021/11/11 07:33:33;;;;;;;0.30;0.30;;;3.10;99.90;;;;;;4993662;28;20456;-85
2021/11/11 07:36:03;;;;;;;0.30;0.30;;;3.20;99.90;;;;;;4994094;28;20460;-85
2021/11/11 07:38:31;;;;;;;0.30;0.30;;;3.30;99.90;;;;;;4995159;28;20492;-85
2021/11/11 07:40:58;;;;;;;0.30;0.20;;;3.30;99.90;;;;;;4994532;28;20452;-85
2021/11/11 07:43:25;;;;;;;0.77;0.77;;;3.30;99.90;;;;;;4993750;28;20468;-85
2021/11/11 07:45:54;;;;;;;0.60;0.60;;;3.40;99.90;;;;;;4993792;28;20452;-86
2021/11/11 07:48:22;;;;;;;0.33;0.33;;;3.40;99.90;;;;;;4993665;28;20445;-86
2021/11/11 07:50:51;;;;;;;0.30;0.30;;;3.30;99.90;;;;;;4993451;28;20449;-84
2021/11/11 07:53:20;;;;;;;0.33;0.33;;;3.20;99.90;;;;;;4993705;28;20591;-85
2021/11/11 07:55:47;;;;;;;0.30;0.30;;;3.30;99.90;;;;;;4993382;28;20425;-85
2021/11/11 07:58:15;;;;;;;0.40;0.40;;;3.20;99.90;;;;;;4993638;28;20480;-85
2021/11/11 08:00:42;;;;;;;0.37;0.37;;;3.30;99.90;;;;;;4993650;28;20440;-85
2021/11/11 08:03:12;;;;;;;0.97;0.40;;;3.40;99.90;;;;;;4994191;28;20487;-85
2021/11/11 08:05:39;;;;;;;0.40;0.40;;;3.40;99.90;;;;;;4993587;28;20822;-86
2021/11/11 08:08:07;;;;;;;0.30;0.30;;;3.50;99.90;;;;;;4993264;28;20539;-85
2021/11/11 08:10:34;;;;;;;0.30;0.30;;;3.60;99.90;;;;;;4994107;28;20979;-86
2021/11/11 08:13:01;;;;;;;2.20;2.10;;;3.70;99.90;;;;;;4996874;28;20495;-86
2021/11/11 08:15:28;;;;;;;0.63;0.63;;;3.90;99.90;;;;;;4996897;28;20461;-85
2021/11/11 08:17:56;;;;;;;1.13;1.13;;;4.00;99.90;;;;;;4996914;28;20480;-85
2021/11/11 08:20:27;;;;;;;0.80;0.80;;;4.10;99.90;;;;;;4997151;28;20445;-85
2021/11/11 08:22:54;;;;;;;0.30;0.20;;;4.30;99.90;;;;;;4996599;28;20927;-86
2021/11/11 08:25:21;;;;;;;0.30;0.30;;;4.50;99.90;;;;;;4996785;28;20467;-86
2021/11/11 08:27:50;;;;;;;1.07;0.90;;;4.50;99.90;;;;;;4996717;28;20449;-86
2021/11/11 08:30:19;;;;;;;0.63;0.63;;;4.80;99.90;;;;;;4996740;28;20437;-86
2021/11/11 08:32:49;;;;;;;0.40;0.30;;;5.00;99.90;;;;;;4996571;28;20444;-85
2021/11/11 08:35:16;;;;;;;1.00;0.93;;;5.20;99.90;;;;;;4996535;28;20536;-85
2021/11/11 08:37:46;;;;;;;0.40;0.40;;;5.50;99.90;;;;;;4996384;28;20484;-86
2021/11/11 08:40:14;;;;;;;1.37;1.03;;;6.00;99.90;;;;;;4996597;28;20445;-86
2021/11/11 08:42:42;;;;;;;0.50;0.40;;;6.60;99.90;;;;;;4998306;28;20460;-86
2021/11/11 08:45:10;;;;;;;0.87;0.60;;;7.40;99.90;;;;;;4999859;28;20448;-85
2021/11/11 08:47:37;;;;;;;0.80;0.80;;;8.30;99.90;;;;;;4996885;28;20456;-86
2021/11/11 08:50:05;;;;;;;0.97;0.50;;;9.10;99.90;;;;;;4996222;28;20444;-85
2021/11/11 08:52:32;;;;;;;0.50;0.50;;;9.90;99.90;;;;;;4995828;28;20538;-85
2021/11/11 08:55:01;;;;;;;0.80;0.80;;;10.80;99.90;;;;;;4996097;28;20477;-86
2021/11/11 08:57:28;;;;;;;0.70;0.50;;;11.80;99.90;;;;;;4995839;28;21030;-86
2021/11/11 08:59:55;;;;;;;1.73;1.07;;;12.80;99.90;;;;;;4996101;28;20455;-85
2021/11/11 09:02:23;;;;;;;8.20;1.33;;;13.90;99.90;;;;;;4995728;28;20515;-86
2021/11/11 09:04:51;;;;;;;2.13;1.30;;;14.70;99.90;;;;;;4995877;28;20530;-85
2021/11/11 09:07:19;;;;;;;1.17;0.83;;;15.30;99.90;;;;;;4996033;28;20484;-86
2021/11/11 09:09:46;;;;;;;1.77;1.17;;;15.80;99.90;;;;;;4995738;28;20456;-85
2021/11/11 09:12:15;;;;;;;1.40;1.30;;;16.20;97.90;;;;;;4995597;28;20436;-85
2021/11/11 09:14:42;;;;;;;3.00;1.50;;;16.10;95.60;;;;;;4995724;28;20472;-85
2021/11/11 09:17:09;;;;;;;1.90;1.60;;;16.10;95.60;;;;;;4996212;28;20519;-86
2021/11/11 09:19:36;;;;;;;3.67;1.53;;;16.10;95.20;;;;;;4995565;28;20463;-86
2021/11/11 09:22:03;;;;;;;2.67;1.60;;;16.10;94.90;;;;;;4995060;28;20872;-85
2021/11/11 09:24:30;;;;;;;1.23;1.23;;;16.00;93.70;;;;;;4995216;28;20473;-85
2021/11/11 09:26:57;;;;;;;3.30;1.60;;;16.00;94.10;;;;;;4996120;28;20515;-85
2021/11/11 09:29:25;;;;;;;3.90;2.00;;;15.60;94.00;;;;;;4995326;28;20456;-86
2021/11/11 09:31:52;;;;;;;1.77;1.43;;;15.50;94.20;;;;;;4995440;28;20460;-86
2021/11/11 09:34:19;;;;;;;3.10;1.43;;;15.30;94.10;;;;;;4995196;28;20480;-86
2021/11/11 09:36:46;;;;;;;2.77;2.00;;;15.40;94.80;;;;;;4995355;28;20456;-85
2021/11/11 09:39:13;;;;;;;2.10;1.33;;;15.70;94.10;;;;;;4995173;28;20516;-86
2021/11/11 09:41:41;;;;;;;2.20;1.60;;;16.20;93.80;;;;;;4994931;28;20469;-85
2021/11/11 09:44:08;;;;;;;3.47;1.20;;;17.10;92.40;;;;;;4994989;28;20468;-86
2021/11/11 09:46:38;;;;;;;6.40;2.10;;;17.40;90.70;;;;;;4995126;28;20894;-86
2021/11/11 09:49:05;;;;;;;6.37;1.50;;;18.20;88.70;;;;;;4994791;28;20452;-85
2021/11/11 09:51:33;;;;;;;2.30;1.77;;;18.80;85.70;;;;;;4994762;28;20484;-85
2021/11/11 09:54:18;;;;;;;1.30;1.20;;;18.90;83.30;;;;;;4995025;28;20967;-86
2021/11/11 09:59:32;;;;;;;3.83;1.90;;;17.60;86.00;;;;;;4994881;28;20462;-84
2021/11/11 10:02:01;;;;;;;2.87;2.10;;;16.70;88.60;;;;;;4994912;28;20816;-86
2021/11/11 10:04:29;;;;;;;2.20;1.73;;;15.70;90.30;;;;;;4994654;28;20484;-85
2021/11/11 10:06:56;;;;;;;3.60;1.87;;;14.70;91.70;;;;;;4994710;28;20452;-85
2021/11/11 10:09:27;;;;;;;2.60;1.37;;;13.90;93.50;;;;;;5002416;28;20433;-86
2021/11/11 10:11:56;;;;;;;2.90;1.90;;;13.40;94.90;;;;;;5002397;28;20457;-86
2021/11/11 10:14:25;;;;;;;1.93;1.37;;;13.00;95.60;;;;;;4998536;28;20499;-86
2021/11/11 10:16:57;;;;;;;4.40;1.93;;;13.00;96.60;;;;;;4995244;28;20448;-85
2021/11/11 10:19:30;;;;;;;2.50;2.10;;;13.00;97.30;;;;;;4992252;28;20483;-85
2021/11/11 10:22:01;;;;;;;3.03;1.20;;;12.80;97.80;;;;;;4995071;28;20452;-85
2021/11/11 10:24:33;;;;;;;3.83;3.23;;;12.60;97.80;;;;;;4994619;28;20477;-86
2021/11/11 10:27:04;;;;;;;7.70;2.07;;;12.40;98.70;;;;;;4993799;28;20794;-85
2021/11/11 10:29:38;;;;;;;2.43;1.27;;;12.20;99.80;;;;;;4994026;28;20456;-85
2021/11/11 10:32:08;;;;;;;3.10;1.87;;;12.20;99.90;;;;;;4994228;28;20448;-85
2021/11/11 10:34:45;;;;;;;1.03;0.87;;;11.90;99.90;;;;;;4993182;28;20472;-85
2021/11/11 10:37:13;;;;;;;2.90;1.47;;;11.70;99.90;;;;;;4993964;28;20416;-85
2021/11/11 10:39:41;;;;;;;2.50;1.37;;;11.50;99.90;;;;;;4993681;28;20471;-85
2021/11/11 10:42:16;;;;;;;1.27;1.17;;;11.40;99.90;;;;;;4994297;28;20452;-85
2021/11/11 10:44:43;;;;;;;3.20;1.30;;;11.20;99.90;;;;;;4995186;28;20964;-84
2021/11/11 10:47:12;;;;;;;2.03;1.30;;;11.10;99.90;;;;;;4995838;28;20428;-84
2021/11/11 10:49:42;;;;;;;1.63;0.90;;;11.00;99.90;;;;;;4993959;28;20457;-85
2021/11/11 10:52:43;;;;;;;2.27;1.30;;;11.00;99.90;;;;;;4993826;28;20472;-89
2021/11/11 10:55:17;;;;;;;2.27;2.13;;;10.90;99.90;;;;;;4994294;28;20455;-86
2021/11/11 10:57:48;;;;;;;3.33;1.63;;;10.80;99.90;;;;;;4994000;28;20425;-84
2021/11/11 11:00:22;;;;;;;3.70;0.90;;;10.70;99.90;;;;;;4994044;28;20436;-87
2021/11/11 11:02:58;;;;;;;4.53;1.20;;;10.80;99.90;;;;;;4994197;28;20462;-86
2021/11/11 11:05:29;;;;;;;4.00;2.00;;;10.70;99.90;;;;;;4993996;28;20436;-86
2021/11/11 11:08:00;;;;;;;1.43;0.70;;;10.70;99.90;;;;;;4993793;28;20421;-87
2021/11/11 11:10:27;;;;;;;1.50;1.40;;;10.80;99.90;;;;;;4993888;28;20440;-90
2021/11/11 11:12:56;;;;;;;2.00;1.23;;;10.80;99.90;;;;;;4994490;28;20457;-90
2021/11/11 11:15:38;;;;;;;1.33;1.23;;;10.70;99.90;;;;;;4994760;28;20476;-90
2021/11/11 11:18:05;;;;;;;3.70;1.63;;;10.80;99.90;;;;;;4994684;28;20468;-90
2021/11/11 11:20:35;;;;;;;3.00;1.13;;;10.80;99.90;;;;;;4994576;28;20436;-88
2021/11/11 11:23:19;;;;;;;5.70;1.20;;;10.80;99.90;;;;;;4994581;28;20572;-90
2021/11/11 11:25:51;;;;;;;2.40;0.93;;;10.80;99.90;;;;;;4994282;28;20488;-90
2021/11/11 11:28:38;;;;;;;2.77;1.00;;;10.80;99.90;;;;;;4994535;28;20437;-90
2021/11/11 11:31:07;;;;;;;2.03;1.23;;;10.90;99.90;;;;;;4994519;28;20809;-89
2021/11/11 11:33:43;;;;;;;1.13;0.60;;;10.90;99.90;;;;;;4994212;28;20523;-89
2021/11/11 11:36:13;;;;;;;2.57;1.60;;;10.80;99.90;;;;;;4994287;28;20460;-89
2021/11/11 11:38:50;;;;;;;1.20;0.80;;;10.80;99.90;;;;;;4994383;28;20484;-90
2021/11/11 11:41:27;;;;;;;4.80;1.33;;;10.60;99.90;;;;;;4994416;28;20432;-90
2021/11/11 11:43:55;;;;;;;1.70;1.30;;;10.60;99.90;;;;;;4994838;28;20478;-90
2021/11/11 11:46:25;;;;;;;0.83;0.80;;;10.50;99.90;;;;;;4998250;28;20445;-90
2021/11/11 11:48:52;;;;;;;7.10;1.40;;;10.40;99.90;;;;;;4998187;28;20436;-90
2021/11/11 11:51:23;;;;;;;3.23;1.20;;;10.40;99.90;;;;;;4997705;28;20491;-89
2021/11/11 11:53:53;;;;;;;0.80;0.70;;;10.30;99.90;;;;;;4998096;28;20477;-90
2021/11/11 11:56:24;;;;;;;1.53;1.40;;;10.30;99.90;;;;;;4997801;28;20440;-89
2021/11/11 11:58:57;;;;;;;2.37;1.10;;;10.20;99.90;;;;;;4998080;28;20483;-89
2021/11/11 12:01:45;;;;;;;2.43;1.27;;;10.10;99.90;;;;;;4997821;28;20440;-89
2021/11/11 12:04:24;;;;;;;3.63;0.60;;;10.10;99.90;;;;;;4997965;28;20483;-90
2021/11/11 12:07:11;;;;;;;3.53;1.03;;;10.10;99.90;;;;;;4999009;28;20512;-90
2021/11/11 12:09:44;;;;;;;1.23;1.10;;;10.00;99.90;;;;;;4997576;28;20450;-90
2021/11/11 12:15:16;;;;;;;2.10;1.23;;;9.90;99.90;;;;;;4964240;28;20438;-88
2021/11/11 12:18:22;;;;;;;2.03;0.80;;;9.90;99.90;;;;;;5008096;28;20532;-89
2021/11/11 12:40:28;;;;;;;2.53;0.87;;;9.70;99.90;;;;;;4997221;28;20975;-90
2021/11/11 12:43:00;;;;;;;2.90;1.00;;;9.70;99.90;;;;;;4997349;28;20463;-90
2021/11/11 12:45:35;;;;;;;0.80;0.80;;;9.70;99.90;;;;;;4997491;28;20437;-90
2021/11/11 12:48:05;;;;;;;5.20;1.23;;;9.70;99.90;;;;;;4997521;28;20487;-90
2021/11/11 12:50:39;;;;;;;1.00;1.00;;;9.70;99.90;;;;;;4997439;28;20828;-90
2021/11/11 12:53:23;;;;;;;1.03;1.03;;;9.70;99.90;;;;;;4997034;28;20461;-89
2021/11/11 12:56:20;;;;;;;1.27;1.17;;;9.70;99.90;;;;;;4996384;28;20436;-90
2021/11/11 12:58:49;;;;;;;4.03;0.90;;;9.70;99.90;;;;;;4997332;28;20971;-90
2021/11/11 13:01:20;;;;;;;3.47;1.70;;;9.70;99.90;;;;;;4997178;28;20811;-90
2021/11/11 13:03:54;;;;;;;6.43;1.00;;;9.70;99.90;;;;;;4996825;28;20803;-90
2021/11/11 13:06:37;;;;;;;2.70;1.73;;;9.80;99.90;;;;;;4996947;28;20443;-90
2021/11/11 13:09:10;;;;;;;2.50;0.80;;;9.80;99.90;;;;;;4997236;28;20467;-90
2021/11/11 13:11:42;;;;;;;1.33;1.10;;;9.70;99.90;;;;;;4997212;28;20441;-90
2021/11/11 13:14:15;;;;;;;0.80;0.80;;;9.70;99.90;;;;;;4996799;28;20980;-90
2021/11/11 13:16:43;;;;;;;0.70;0.70;;;9.70;99.90;;;;;;4998088;28;20531;-90
2021/11/11 13:19:10;;;;;;;2.50;1.07;;;9.60;99.90;;;;;;5006350;28;20506;-90
2021/11/11 13:21:49;;;;;;;3.10;1.20;;;9.60;99.90;;;;;;5016524;28;20454;-90
2021/11/11 13:24:28;;;;;;;0.80;0.80;;;9.60;99.90;;;;;;5016419;28;20471;-90
2021/11/11 14:01:06;;;;;;;1.03;0.63;;;9.10;99.90;;;;;;4996779;28;20412;-90
2021/11/11 14:03:57;;;;;;;0.87;0.87;;;9.00;99.90;;;;;;4998191;28;20479;-90
2021/11/11 15:15:09;;;;;;;0.70;0.70;;;7.90;99.90;;;;;;4975519;28;20593;-89
2021/11/11 15:17:40;;;;;;;1.10;1.07;;;7.90;99.90;;;;;;4973965;28;20461;-87
2021/11/11 15:20:32;;;;;;;1.37;0.87;;;7.80;99.90;;;;;;4976384;28;20476;-87